Time;durP1;ratioP1;P1;durP2;ratioP2;P2;SDS_P1;SDS_P2;PMS_P1;PMS_P2;Temp;Humidity;BMP_temperature;BMP_pressure;BME280_temperature;BME280_humidity;BME280_pressure;Samples;Min_cycle;Max_cycle;Signal;HPM_P1;HPM_P2
2023/12/27 00:00:38;;;;;;;73.35;70.03;;;;;;;9.83;69.71;101987.63;5011997;28;20470;-69
2023/12/27 00:03:04;;;;;;;74.05;70.60;;;;;;;9.81;69.83;101989.72;5023832;28;20432;-69
2023/12/27 00:05:30;;;;;;;70.30;67.03;;;;;;;9.81;69.73;101984.31;5026414;28;20042;-68
2023/12/27 00:07:55;;;;;;;72.43;69.03;;;;;;;9.81;69.76;101989.72;5033493;28;20120;-70
2023/12/27 00:10:21;;;;;;;71.68;68.47;;;;;;;9.79;69.69;101984.50;5012368;28;20443;-69
2023/12/27 00:12:46;;;;;;;71.72;68.32;;;;;;;9.78;69.60;101982.00;5012534;28;20453;-69
2023/12/27 00:15:12;;;;;;;76.50;72.90;;;;;;;9.77;69.78;101983.88;5030046;28;20046;-69
2023/12/27 00:17:37;;;;;;;76.10;72.72;;;;;;;9.76;69.74;101979.53;5023114;28;20389;-69
2023/12/27 00:20:03;;;;;;;73.55;70.03;;;;;;;9.75;69.78;101984.09;5020428;28;20030;-68
2023/12/27 00:22:28;;;;;;;71.88;68.57;;;;;;;9.74;69.72;101989.69;5012141;28;20038;-68
2023/12/27 00:24:54;;;;;;;72.25;68.93;;;;;;;9.73;69.66;101993.44;5021833;28;20037;-68
2023/12/27 00:27:19;;;;;;;70.30;66.70;;;;;;;9.72;69.61;101989.06;5029640;28;20042;-70
2023/12/27 00:29:44;;;;;;;69.28;65.95;;;;;;;9.71;69.65;101984.72;5012206;28;20026;-70
2023/12/27 00:32:11;;;;;;;70.45;67.15;;;;;;;9.70;69.56;101985.75;5011252;28;20093;-69
2023/12/27 00:34:37;;;;;;;71.20;67.80;;;;;;;9.69;69.69;101995.69;5016189;28;20129;-69
2023/12/27 00:37:03;;;;;;;70.72;67.22;;;;;;;9.69;69.63;101986.78;5024994;28;20114;-69
2023/12/27 00:39:28;;;;;;;70.28;67.05;;;;;;;9.69;69.58;102000.28;5011929;28;20068;-69
2023/12/27 00:41:54;;;;;;;73.32;69.53;;;;;;;9.66;69.75;101992.59;5012200;28;20057;-69
2023/12/27 00:44:19;;;;;;;75.53;72.13;;;;;;;9.66;69.61;101987.19;5011005;28;20034;-69
2023/12/27 00:46:45;;;;;;;71.47;67.97;;;;;;;9.65;69.64;101990.91;5028639;28;20541;-69
2023/12/27 00:49:11;;;;;;;70.63;67.18;;;;;;;9.64;69.61;101987.41;5011725;28;20112;-69
2023/12/27 00:51:36;;;;;;;72.93;69.65;;;;;;;9.64;69.63;101978.47;5011936;28;20034;-69
2023/12/27 00:54:01;;;;;;;72.45;68.97;;;;;;;9.62;69.53;101970.59;5011336;28;20061;-69
2023/12/27 00:56:27;;;;;;;70.72;67.32;;;;;;;9.62;69.63;101972.44;5020675;28;20064;-70
2023/12/27 00:58:52;;;;;;;66.63;63.50;;;;;;;9.60;69.62;101969.97;5015793;28;20570;-69
2023/12/27 01:01:18;;;;;;;74.53;70.93;;;;;;;9.60;69.60;101966.44;5016022;28;20191;-69
2023/12/27 01:03:43;;;;;;;70.38;66.97;;;;;;;9.59;69.58;101960.22;5033175;28;20113;-69
2023/12/27 01:06:10;;;;;;;70.85;67.53;;;;;;;9.58;69.60;101961.25;5032087;28;20500;-69
2023/12/27 01:08:36;;;;;;;70.18;67.05;;;;;;;9.57;69.51;101966.84;5022208;28;20037;-69
2023/12/27 01:11:01;;;;;;;69.15;65.95;;;;;;;9.56;69.45;101954.41;5014640;28;20030;-69
2023/12/27 01:13:28;;;;;;;68.78;65.65;;;;;;;9.55;69.69;101956.28;5018167;28;20428;-69
2023/12/27 01:15:54;;;;;;;68.30;65.22;;;;;;;9.55;69.48;101948.19;5015210;28;20061;-68
2023/12/27 01:18:19;;;;;;;71.32;67.78;;;;;;;9.53;69.52;101939.47;5020881;28;20574;-69
2023/12/27 01:20:44;;;;;;;71.13;67.60;;;;;;;9.51;69.58;101942.34;5014870;28;20125;-69
2023/12/27 01:23:10;;;;;;;70.28;66.90;;;;;;;9.51;69.48;101945.06;5040642;28;20052;-69
2023/12/27 01:25:35;;;;;;;70.07;66.70;;;;;;;9.50;69.67;101946.09;5028338;28;20069;-69
2023/12/27 01:28:01;;;;;;;72.88;69.43;;;;;;;9.49;69.42;101943.59;5016832;28;20467;-71
2023/12/27 01:30:26;;;;;;;69.53;66.35;;;;;;;9.48;69.44;101944.66;5014998;28;20038;-69
2023/12/27 01:32:51;;;;;;;68.07;64.95;;;;;;;9.47;69.34;101959.97;5019538;28;20466;-69
2023/12/27 01:35:17;;;;;;;74.22;70.65;;;;;;;9.47;69.48;101964.53;5014416;28;20038;-68
2023/12/27 01:37:43;;;;;;;70.93;67.18;;;;;;;9.46;69.40;101957.50;5022336;28;20029;-69
2023/12/27 01:40:09;;;;;;;69.43;66.07;;;;;;;9.45;69.41;101955.81;5021261;28;20465;-69
2023/12/27 01:42:34;;;;;;;66.90;63.83;;;;;;;9.44;69.34;101956.88;5035840;28;20042;-69
2023/12/27 01:45:00;;;;;;;70.68;67.38;;;;;;;9.42;69.19;101959.75;5014871;28;20041;-68
2023/12/27 01:47:26;;;;;;;68.10;64.93;;;;;;;9.42;69.40;101961.63;5014025;28;20088;-69
2023/12/27 01:49:53;;;;;;;68.18;64.97;;;;;;;9.41;69.40;101958.13;5048266;28;20033;-69
2023/12/27 01:52:18;;;;;;;73.88;70.38;;;;;;;9.41;69.41;101957.28;5014268;28;20125;-69
2023/12/27 01:54:44;;;;;;;71.45;67.97;;;;;;;9.40;69.25;101956.47;5014513;28;20116;-69
2023/12/27 01:57:10;;;;;;;72.82;69.22;;;;;;;9.40;69.26;101961.00;5013769;28;20054;-69
2023/12/27 01:59:35;;;;;;;67.07;64.00;;;;;;;9.39;69.16;101952.09;5041106;28;20036;-69
2023/12/27 02:02:01;;;;;;;70.97;67.72;;;;;;;9.36;69.29;101955.19;5016159;28;20030;-69
2023/12/27 02:04:27;;;;;;;69.63;66.43;;;;;;;9.36;69.61;101941.72;5013818;28;20088;-71
2023/12/27 02:06:53;;;;;;;66.50;63.35;;;;;;;9.35;69.45;101940.06;5014373;28;20042;-69
2023/12/27 02:09:19;;;;;;;70.22;66.45;;;;;;;9.34;69.35;101941.09;5028485;28;20040;-69
2023/12/27 02:11:45;;;;;;;68.88;65.63;;;;;;;9.34;69.38;101949.19;5025526;28;20073;-70
2023/12/27 02:14:10;;;;;;;74.03;70.43;;;;;;;9.33;69.40;101942.13;5012550;28;20450;-69
2023/12/27 02:16:36;;;;;;;67.03;63.63;;;;;;;9.32;69.50;101944.00;5023196;28;20087;-68
2023/12/27 02:19:04;;;;;;;70.70;67.32;;;;;;;9.31;69.30;101942.34;5029138;28;20088;-68
2023/12/27 02:21:31;;;;;;;77.23;73.43;;;;;;;9.32;69.26;101932.38;5013831;28;20037;-69
2023/12/27 02:24:00;;;;;;;70.22;66.38;;;;;;;9.30;69.32;101931.78;5021345;28;20393;-69
2023/12/27 02:26:25;;;;;;;65.53;62.42;;;;;;;9.30;69.38;101931.78;5037159;28;20033;-69
2023/12/27 02:28:50;;;;;;;68.47;64.55;;;;;;;9.29;69.28;101930.91;5033110;28;20030;-69
2023/12/27 02:31:16;;;;;;;69.45;66.13;;;;;;;9.28;69.30;101923.03;5032789;28;20100;-68
2023/12/27 02:33:44;;;;;;;67.53;64.22;;;;;;;9.27;69.36;101919.53;5031960;28;20037;-71
2023/12/27 02:36:10;;;;;;;67.22;63.97;;;;;;;9.26;69.33;101925.94;5023681;28;20044;-69
2023/12/27 02:38:35;;;;;;;65.82;62.80;;;;;;;9.25;69.33;101923.47;5023891;28;20430;-69
2023/12/27 02:41:02;;;;;;;67.38;64.03;;;;;;;9.25;69.28;101923.47;5012346;28;20038;-69
2023/12/27 02:43:28;;;;;;;68.30;64.95;;;;;;;9.24;69.39;101914.53;5017104;28;20456;-69
2023/12/27 02:45:53;;;;;;;63.92;61.00;;;;;;;9.23;69.42;101909.34;5031646;28;20124;-68
2023/12/27 02:48:19;;;;;;;68.95;65.55;;;;;;;9.22;69.46;101903.13;5026954;28;20069;-68
2023/12/27 02:50:44;;;;;;;67.55;63.85;;;;;;;9.22;69.43;101899.59;5024205;28;20541;-68
2023/12/27 02:53:11;;;;;;;66.18;62.97;;;;;;;9.21;69.31;101895.25;5014462;28;20391;-71
2023/12/27 02:55:36;;;;;;;66.38;63.33;;;;;;;9.20;69.36;101886.34;5012585;28;20076;-69
2023/12/27 02:58:03;;;;;;;67.50;64.10;;;;;;;9.19;69.32;101889.22;5022349;28;20038;-69
2023/12/27 03:00:34;;;;;;;65.70;62.30;;;;;;;9.19;69.38;101887.34;5012631;28;20445;-68
2023/12/27 03:03:00;;;;;;;69.55;65.82;;;;;;;9.18;69.34;101885.69;5023892;28;20064;-69
2023/12/27 03:05:25;;;;;;;69.05;65.60;;;;;;;9.17;69.46;101886.75;5044184;28;20041;-69
2023/12/27 03:07:51;;;;;;;68.13;64.93;;;;;;;9.17;69.48;101872.41;5026250;28;20030;-68
2023/12/27 03:10:16;;;;;;;70.53;66.20;;;;;;;9.17;69.49;101869.72;5038378;28;20485;-69
2023/12/27 03:12:42;;;;;;;62.58;59.50;;;;;;;9.16;69.27;101868.91;5033338;28;22040;-69
2023/12/27 03:15:07;;;;;;;66.65;63.47;;;;;;;9.16;69.32;101862.69;5018162;28;20069;-68
2023/12/27 03:17:33;;;;;;;64.50;61.47;;;;;;;9.14;69.39;101856.66;5029268;28;20354;-69
2023/12/27 03:19:58;;;;;;;66.10;62.45;;;;;;;9.13;69.36;101849.63;5033505;28;20041;-69
2023/12/27 03:22:24;;;;;;;60.78;57.80;;;;;;;9.12;69.41;101847.94;5013682;28;20038;-69
2023/12/27 03:24:49;;;;;;;64.57;61.53;;;;;;;9.09;69.31;101847.31;5022878;28;20133;-69
2023/12/27 03:27:14;;;;;;;64.00;60.92;;;;;;;9.09;69.39;101855.41;5011127;28;20033;-68
2023/12/27 03:29:40;;;;;;;67.85;64.60;;;;;;;9.08;69.42;101840.28;5018479;28;20090;-70
2023/12/27 03:32:06;;;;;;;64.05;60.90;;;;;;;9.09;69.34;101841.91;5012062;28;20038;-68
2023/12/27 03:34:32;;;;;;;66.80;62.72;;;;;;;9.10;69.33;101837.38;5015280;28;20034;-69
2023/12/27 03:36:57;;;;;;;64.72;61.42;;;;;;;9.08;69.38;101826.81;5013525;28;20060;-69
2023/12/27 03:39:23;;;;;;;65.40;62.30;;;;;;;9.07;69.35;101822.47;5012449;28;20022;-68
2023/12/27 03:41:48;;;;;;;63.08;59.83;;;;;;;9.06;69.23;101811.88;5019895;28;20089;-68
2023/12/27 03:44:14;;;;;;;68.25;63.10;;;;;;;9.06;69.34;101810.00;5015127;28;20468;-69
2023/12/27 03:46:39;;;;;;;64.18;60.80;;;;;;;9.06;69.48;101801.09;5016921;28;20045;-69
2023/12/27 03:49:05;;;;;;;68.30;65.03;;;;;;;9.05;69.31;101799.44;5012526;28;20033;-69
2023/12/27 03:51:30;;;;;;;65.85;62.50;;;;;;;9.04;69.58;101801.28;5023106;28;20041;-70
2023/12/27 03:53:56;;;;;;;65.35;62.13;;;;;;;9.04;69.34;101795.06;5014404;28;20038;-69
2023/12/27 03:56:21;;;;;;;65.80;62.70;;;;;;;9.03;69.42;101786.16;5020550;28;20058;-69
2023/12/27 03:58:47;;;;;;;66.43;62.22;;;;;;;9.01;69.57;101777.44;5018296;28;20504;-69
2023/12/27 04:01:12;;;;;;;61.83;59.03;;;;;;;9.00;69.44;101777.66;5036490;28;20053;-69
2023/12/27 04:03:39;;;;;;;64.47;61.03;;;;;;;8.98;69.27;101777.03;5028614;28;20497;-68
2023/12/27 04:06:05;;;;;;;61.60;58.67;;;;;;;8.97;69.46;101776.22;5026835;28;20033;-69
2023/12/27 04:08:30;;;;;;;66.05;62.65;;;;;;;8.95;69.35;101778.28;5023654;28;20034;-68
2023/12/27 04:10:55;;;;;;;67.75;64.45;;;;;;;8.96;69.38;101776.41;5034606;28;20133;-69
2023/12/27 04:13:21;;;;;;;62.45;59.20;;;;;;;8.95;69.46;101767.50;5051106;28;20029;-69
2023/12/27 04:15:46;;;;;;;65.32;62.15;;;;;;;8.96;69.39;101765.63;5014952;28;20096;-68
2023/12/27 04:18:12;;;;;;;61.85;58.92;;;;;;;8.94;69.51;101765.84;5024248;28;20072;-69
2023/12/27 04:20:37;;;;;;;61.75;58.67;;;;;;;8.95;69.51;101766.69;5014445;28;20029;-68
2023/12/27 04:23:03;;;;;;;66.65;63.28;;;;;;;8.94;69.64;101765.84;5041132;28;20040;-69
2023/12/27 04:25:28;;;;;;;66.40;63.15;;;;;;;8.92;70.00;101767.94;5013002;28;20033;-69
2023/12/27 04:27:54;;;;;;;61.55;58.67;;;;;;;8.92;69.56;101761.69;5012376;28;20088;-68
2023/12/27 04:30:19;;;;;;;63.33;59.72;;;;;;;8.91;69.55;101768.94;5025262;28;20034;-70
2023/12/27 04:32:44;;;;;;;65.60;62.50;;;;;;;8.91;69.55;101754.66;5014739;28;20117;-69
2023/12/27 04:35:10;;;;;;;64.25;61.05;;;;;;;8.92;69.80;101756.28;5011853;28;20030;-68
2023/12/27 04:37:35;;;;;;;66.88;63.35;;;;;;;8.90;69.45;101755.69;5011588;28;20113;-69
2023/12/27 04:40:01;;;;;;;62.55;59.55;;;;;;;8.88;69.39;101743.25;5014598;28;20037;-69
2023/12/27 04:42:26;;;;;;;64.55;61.17;;;;;;;8.89;69.53;101741.38;5018805;28;20036;-69
2023/12/27 04:44:51;;;;;;;62.38;59.47;;;;;;;8.90;69.48;101755.69;5031192;28;20033;-69
2023/12/27 04:47:17;;;;;;;62.80;59.25;;;;;;;8.88;69.43;101739.72;5015702;28;20476;-69
2023/12/27 04:49:42;;;;;;;59.28;56.58;;;;;;;8.89;69.57;101738.69;5020977;28;20037;-69
2023/12/27 04:52:07;;;;;;;64.00;60.42;;;;;;;8.89;69.64;101741.38;5015726;28;20486;-69
2023/12/27 04:54:33;;;;;;;58.85;56.03;;;;;;;8.88;69.46;101737.84;5037030;28;20042;-69
2023/12/27 04:56:58;;;;;;;63.95;61.05;;;;;;;8.87;69.57;101733.50;5014483;28;20121;-69
2023/12/27 04:59:23;;;;;;;67.22;63.60;;;;;;;8.88;69.73;101731.66;5020779;28;20035;-69
2023/12/27 05:01:50;;;;;;;66.13;62.13;;;;;;;8.87;69.53;101722.75;5033040;28;20047;-69
2023/12/27 05:04:16;;;;;;;63.20;60.13;;;;;;;8.88;69.29;101718.16;5032475;28;20038;-69
2023/12/27 05:06:41;;;;;;;62.33;59.15;;;;;;;8.86;69.41;101712.97;5019941;28;20064;-69
2023/12/27 05:09:06;;;;;;;65.43;62.03;;;;;;;8.86;69.47;101706.75;5043527;28;20030;-69
2023/12/27 05:11:32;;;;;;;59.72;56.83;;;;;;;8.87;69.63;101705.75;5014902;28;20526;-69
2023/12/27 05:13:57;;;;;;;62.28;59.35;;;;;;;8.87;69.65;101697.66;5022691;28;20033;-69
2023/12/27 05:16:23;;;;;;;65.10;61.67;;;;;;;8.85;69.39;101695.16;5034757;28;20045;-69
2023/12/27 05:18:48;;;;;;;66.78;63.03;;;;;;;8.84;69.66;101693.53;5014380;28;20493;-69
2023/12/27 05:21:17;;;;;;;62.47;59.22;;;;;;;8.84;69.79;101692.66;5025056;28;20034;-68
2023/12/27 05:23:42;;;;;;;63.80;60.35;;;;;;;8.81;69.36;101683.13;5014748;28;20036;-69
2023/12/27 05:26:08;;;;;;;59.72;56.88;;;;;;;8.82;69.66;101673.19;5030749;28;20034;-69
2023/12/27 05:28:34;;;;;;;61.38;58.28;;;;;;;8.82;69.58;101675.88;5014461;28;20042;-69
2023/12/27 05:30:59;;;;;;;65.32;61.58;;;;;;;8.80;69.57;101673.41;5014994;28;20437;-69
2023/12/27 05:33:25;;;;;;;59.63;56.83;;;;;;;8.81;69.68;101674.22;5023213;28;20030;-69
2023/12/27 05:35:51;;;;;;;60.42;57.65;;;;;;;8.80;69.63;101673.41;5040884;28;20087;-68
2023/12/27 05:38:17;;;;;;;62.22;59.22;;;;;;;8.80;69.63;101676.09;5023940;28;20033;-68
2023/12/27 05:40:42;;;;;;;60.22;57.25;;;;;;;8.80;69.79;101684.19;5031599;28;20044;-69
2023/12/27 05:43:08;;;;;;;61.53;58.42;;;;;;;8.80;69.77;101677.97;5026841;28;20098;-69
2023/12/27 05:45:33;;;;;;;64.78;61.47;;;;;;;8.80;69.50;101675.28;5021125;28;20052;-68
2023/12/27 05:47:59;;;;;;;61.80;58.83;;;;;;;8.80;69.63;101665.34;5041101;28;20038;-69
2023/12/27 05:50:24;;;;;;;64.03;60.55;;;;;;;8.80;69.76;101662.63;5014465;28;20041;-69
2023/12/27 05:52:49;;;;;;;60.63;57.58;;;;;;;8.81;69.73;101652.69;5037890;28;20047;-69
2023/12/27 05:55:15;;;;;;;64.72;61.38;;;;;;;8.80;69.73;101651.84;5014775;28;20053;-69
2023/12/27 05:57:41;;;;;;;58.92;56.13;;;;;;;8.78;69.71;101653.94;5048858;28;20053;-69
2023/12/27 06:00:07;;;;;;;64.05;60.35;;;;;;;8.79;69.88;101652.88;5019049;28;20129;-69
2023/12/27 06:02:33;;;;;;;60.88;58.03;;;;;;;8.79;69.71;101647.50;5022569;28;20067;-70
2023/12/27 06:04:59;;;;;;;62.63;59.42;;;;;;;8.79;69.70;101644.78;5040733;28;20030;-69
2023/12/27 06:07:24;;;;;;;60.03;57.08;;;;;;;8.78;69.73;101643.16;5029104;28;20030;-69
2023/12/27 06:09:50;;;;;;;64.80;61.53;;;;;;;8.80;69.77;101632.19;5028936;28;20026;-69
2023/12/27 06:12:15;;;;;;;60.85;57.95;;;;;;;8.79;70.02;101627.81;5013526;28;20467;-69
2023/12/27 06:14:41;;;;;;;64.03;60.72;;;;;;;8.80;69.91;101624.09;5013811;28;20041;-69
2023/12/27 06:17:06;;;;;;;57.22;54.55;;;;;;;8.80;69.52;101614.13;5030663;28;20085;-69
2023/12/27 06:19:31;;;;;;;59.28;56.50;;;;;;;8.81;69.75;101623.03;5013610;28;20034;-69
2023/12/27 06:21:57;;;;;;;58.20;55.40;;;;;;;8.80;69.64;101608.75;5014635;28;20060;-69
2023/12/27 06:24:23;;;;;;;60.47;57.13;;;;;;;8.79;69.68;101607.06;5027512;28;20026;-67
2023/12/27 06:26:49;;;;;;;61.25;58.03;;;;;;;8.80;69.76;101603.38;5014780;28;20117;-69
2023/12/27 06:29:14;;;;;;;61.95;59.00;;;;;;;8.79;69.94;101600.88;5036171;28;20044;-68
2023/12/27 06:31:40;;;;;;;63.22;60.00;;;;;;;8.80;69.70;101597.16;5012166;28;20207;-68
2023/12/27 06:34:06;;;;;;;59.15;55.95;;;;;;;8.78;69.47;101599.22;5013154;28;20030;-69
2023/12/27 06:36:31;;;;;;;58.83;55.92;;;;;;;8.79;69.52;101590.91;5029068;28;20038;-69
2023/12/27 06:38:57;;;;;;;60.90;57.78;;;;;;;8.79;69.81;101590.91;5024175;28;20041;-68
2023/12/27 06:41:22;;;;;;;64.60;60.92;;;;;;;8.79;69.74;101582.84;5018727;28;20029;-69
2023/12/27 06:43:48;;;;;;;64.30;60.92;;;;;;;8.78;69.71;101583.06;5026773;28;20030;-68
2023/12/27 06:46:13;;;;;;;55.65;53.05;;;;;;;8.78;69.79;101574.97;5009722;28;20044;-69
2023/12/27 06:48:39;;;;;;;60.00;57.10;;;;;;;8.78;69.66;101575.81;5028847;28;20508;-72
2023/12/27 06:51:06;;;;;;;62.65;59.70;;;;;;;8.79;69.88;101563.16;5029068;28;20057;-68
2023/12/27 06:53:32;;;;;;;60.13;57.03;;;;;;;8.80;69.67;101567.53;5026508;28;20036;-68
2023/12/27 06:56:00;;;;;;;63.20;60.08;;;;;;;8.80;69.78;101570.22;5027967;28;20492;-68
2023/12/27 06:58:26;;;;;;;63.65;60.50;;;;;;;8.80;69.97;101567.53;5027641;28;20057;-68
2023/12/27 07:00:51;;;;;;;62.20;58.88;;;;;;;8.80;69.93;101578.31;5027426;28;20034;-68
2023/12/27 07:03:16;;;;;;;63.22;60.17;;;;;;;8.81;69.88;101574.56;5024797;28;20425;-69
2023/12/27 07:05:42;;;;;;;66.95;63.42;;;;;;;8.81;69.79;101566.47;5025324;28;20536;-68
2023/12/27 07:08:07;;;;;;;61.65;58.47;;;;;;;8.82;69.88;101568.13;5028557;28;20120;-68
2023/12/27 07:10:33;;;;;;;59.00;56.00;;;;;;;8.81;69.92;101558.38;5028816;28;20523;-68
2023/12/27 07:12:58;;;;;;;60.75;57.83;;;;;;;8.82;69.92;101557.34;5026512;28;20466;-68
2023/12/27 07:15:23;;;;;;;62.33;59.13;;;;;;;8.81;69.92;101561.09;5024475;28;20120;-68
2023/12/27 07:17:49;;;;;;;60.53;57.53;;;;;;;8.82;69.83;101562.72;5027786;28;20037;-71
2023/12/27 07:20:14;;;;;;;60.33;57.45;;;;;;;8.80;69.93;101554.88;5029217;28;20485;-69
2023/12/27 07:22:40;;;;;;;61.58;58.45;;;;;;;8.82;70.06;101558.19;5026671;28;20083;-68
2023/12/27 07:25:05;;;;;;;62.42;59.53;;;;;;;8.83;69.95;101559.00;5024590;28;20462;-69
2023/12/27 07:27:31;;;;;;;58.83;55.83;;;;;;;8.85;69.96;101560.47;5025973;28;20033;-70
2023/12/27 07:29:56;;;;;;;62.78;59.58;;;;;;;8.85;69.94;101554.25;5027508;28;20036;-68
2023/12/27 07:32:21;;;;;;;61.50;58.40;;;;;;;8.85;69.90;101552.38;5025901;28;20045;-68
2023/12/27 07:34:47;;;;;;;66.15;62.67;;;;;;;8.87;70.01;101560.25;5028002;28;20554;-68
2023/12/27 07:37:12;;;;;;;61.47;58.53;;;;;;;8.87;69.93;101557.56;5028980;28;20041;-70
2023/12/27 07:39:38;;;;;;;60.78;57.78;;;;;;;8.86;70.05;101545.94;5024791;28;20427;-69
2023/12/27 07:42:03;;;;;;;62.50;59.22;;;;;;;8.88;69.97;101545.72;5029099;28;20087;-68
2023/12/27 07:44:29;;;;;;;60.58;57.38;;;;;;;8.87;69.94;101536.84;5028726;28;20430;-69
2023/12/27 07:46:55;;;;;;;65.25;61.22;;;;;;;8.90;69.82;101540.16;5026212;28;20409;-68
2023/12/27 07:49:20;;;;;;;63.58;60.38;;;;;;;8.91;69.81;101539.09;5024497;28;20026;-68
2023/12/27 07:51:46;;;;;;;62.85;59.50;;;;;;;8.91;69.89;101539.91;5028965;28;20067;-68
2023/12/27 07:54:11;;;;;;;62.35;59.13;;;;;;;8.92;70.08;101538.03;5025983;28;20045;-69
2023/12/27 07:56:37;;;;;;;57.83;55.03;;;;;;;8.91;69.91;101542.63;5024598;28;20080;-68
2023/12/27 07:59:03;;;;;;;60.47;57.38;;;;;;;8.93;69.91;101537.03;5024411;28;20060;-68
2023/12/27 08:01:31;;;;;;;62.63;59.45;;;;;;;8.92;69.92;101533.50;5027248;28;20041;-68
2023/12/27 08:03:57;;;;;;;64.13;60.08;;;;;;;8.94;69.86;101530.59;5023959;28;20401;-68
2023/12/27 08:06:23;;;;;;;59.13;56.15;;;;;;;8.94;70.00;101530.59;5024956;28;20037;-69
2023/12/27 08:08:48;;;;;;;65.28;61.97;;;;;;;8.95;70.10;101529.56;5030661;28;20041;-69
2023/12/27 08:11:14;;;;;;;59.60;56.65;;;;;;;8.95;69.82;101521.47;5025471;28;20029;-70
2023/12/27 08:13:39;;;;;;;58.35;55.50;;;;;;;8.95;70.01;101518.78;5029279;28;20046;-68
2023/12/27 08:16:05;;;;;;;64.22;60.92;;;;;;;8.95;69.92;101524.16;5025060;28;20071;-69
2023/12/27 08:18:31;;;;;;;61.90;58.78;;;;;;;8.96;69.92;101509.66;5026259;28;20069;-69
2023/12/27 08:20:57;;;;;;;61.30;58.08;;;;;;;8.97;69.98;101503.19;5025613;28;20068;-68
2023/12/27 08:23:23;;;;;;;57.72;54.50;;;;;;;8.95;69.90;101492.66;5029468;28;20071;-69
2023/12/27 08:25:48;;;;;;;64.43;61.03;;;;;;;8.95;69.92;101492.66;5027638;28;20042;-69
2023/12/27 08:28:17;;;;;;;60.72;57.53;;;;;;;8.96;69.89;101497.00;5026614;28;20033;-68
2023/12/27 08:30:43;;;;;;;60.80;57.72;;;;;;;8.96;69.97;101505.06;5027074;28;20033;-68
2023/12/27 08:33:09;;;;;;;63.17;60.13;;;;;;;8.98;70.01;101499.50;5026617;28;20040;-69
2023/12/27 08:35:34;;;;;;;62.95;59.85;;;;;;;8.98;70.05;101503.00;5027757;28;20033;-69
2023/12/27 08:38:00;;;;;;;61.42;58.22;;;;;;;8.98;69.85;101503.00;5026309;28;20366;-69
2023/12/27 08:40:25;;;;;;;57.97;55.20;;;;;;;8.99;69.81;101496.56;5027738;28;20474;-68
2023/12/27 08:42:51;;;;;;;65.93;62.63;;;;;;;9.00;69.76;101489.34;5023606;28;20072;-69
2023/12/27 08:45:16;;;;;;;60.10;57.15;;;;;;;8.99;70.10;101472.31;5025199;28;20128;-77
2023/12/27 08:47:43;;;;;;;63.15;59.95;;;;;;;9.02;70.15;101479.13;5027088;28;20108;-69
2023/12/27 08:50:08;;;;;;;62.67;59.28;;;;;;;9.03;70.06;101470.03;5025222;28;20041;-68
2023/12/27 08:52:34;;;;;;;61.50;58.13;;;;;;;9.03;70.05;101461.94;5027503;28;20041;-69
2023/12/27 08:54:59;;;;;;;62.30;59.08;;;;;;;9.03;69.95;101462.75;5025914;28;20041;-69
2023/12/27 08:57:25;;;;;;;63.65;60.05;;;;;;;9.03;70.18;101460.06;5022731;28;20061;-68
2023/12/27 08:59:50;;;;;;;62.58;59.38;;;;;;;9.04;70.29;101461.72;5021429;28;20127;-68
2023/12/27 09:02:15;;;;;;;61.55;58.72;;;;;;;9.05;70.23;101471.47;5026114;28;20045;-69
2023/12/27 09:04:41;;;;;;;61.55;58.75;;;;;;;9.07;70.26;101484.72;5028045;28;20037;-69
2023/12/27 09:07:06;;;;;;;62.65;59.55;;;;;;;9.07;70.28;101471.22;5022856;28;20040;-68
2023/12/27 09:09:32;;;;;;;61.38;58.22;;;;;;;9.08;70.33;101462.13;5019138;28;20067;-70
2023/12/27 09:11:57;;;;;;;64.03;60.78;;;;;;;9.08;70.45;101454.03;5024645;28;20037;-69
2023/12/27 09:14:22;;;;;;;62.65;59.67;;;;;;;9.10;70.36;101449.28;5021977;28;20041;-69
2023/12/27 09:16:48;;;;;;;57.33;54.53;;;;;;;9.12;70.45;101454.44;5023512;28;20462;-70
2023/12/27 09:19:13;;;;;;;66.53;63.42;;;;;;;9.12;70.10;101446.34;5023863;28;20112;-69
2023/12/27 09:21:45;;;;;;;63.45;60.20;;;;;;;9.14;70.36;101452.34;5023519;28;20134;-69
2023/12/27 09:24:11;;;;;;;62.58;59.35;;;;;;;9.14;70.39;101446.97;5022036;28;20456;-69
2023/12/27 09:26:37;;;;;;;64.47;61.38;;;;;;;9.14;70.55;101437.00;5022393;28;20544;-70
2023/12/27 09:29:02;;;;;;;61.50;58.47;;;;;;;9.14;70.38;101428.09;5019364;28;20033;-71
2023/12/27 09:31:30;;;;;;;62.83;59.70;;;;;;;9.14;70.24;101434.31;5025363;28;20056;-69
2023/12/27 09:33:56;;;;;;;62.72;59.70;;;;;;;9.15;70.47;101424.34;5024443;28;20041;-68
2023/12/27 09:36:21;;;;;;;63.03;60.05;;;;;;;9.16;70.44;101415.22;5024552;28;20040;-71
2023/12/27 09:38:47;;;;;;;61.05;58.15;;;;;;;9.16;70.35;101418.75;5027120;28;20429;-69
2023/12/27 09:41:13;;;;;;;63.10;60.15;;;;;;;9.15;70.46;101427.03;5024094;28;20164;-69
2023/12/27 09:43:42;;;;;;;64.88;61.78;;;;;;;9.15;70.48;101441.38;5026822;28;20026;-68
2023/12/27 09:46:08;;;;;;;61.80;58.70;;;;;;;9.14;70.87;101426.22;5028515;28;20043;-69
2023/12/27 09:48:36;;;;;;;60.75;57.85;;;;;;;9.14;70.72;101420.00;5029482;28;20033;-69
2023/12/27 09:51:02;;;;;;;59.00;56.10;;;;;;;9.14;70.70;101420.81;5027732;28;20477;-68
2023/12/27 09:53:27;;;;;;;62.42;59.25;;;;;;;9.15;70.75;101413.56;5027495;28;20088;-68
2023/12/27 09:55:55;;;;;;;61.30;58.10;;;;;;;9.16;70.80;101418.75;5029022;28;20045;-68
2023/12/27 09:58:23;;;;;;;59.33;56.63;;;;;;;9.18;70.83;101413.97;5026977;28;20054;-70
2023/12/27 10:00:50;;;;;;;61.30;58.22;;;;;;;9.20;70.93;101419.16;5024752;28;20025;-69
2023/12/27 10:03:25;;;;;;;62.90;59.88;;;;;;;9.19;70.75;101402.13;5027951;28;20033;-69
2023/12/27 10:06:24;;;;;;;60.90;57.90;;;;;;;9.20;70.73;101409.19;5029519;28;20083;-69
2023/12/27 10:08:50;;;;;;;59.60;56.80;;;;;;;9.20;70.53;101393.03;5023525;28;20049;-69
2023/12/27 10:11:18;;;;;;;63.45;60.42;;;;;;;9.19;70.68;101404.81;5030126;28;20498;-69
2023/12/27 10:13:45;;;;;;;60.15;57.38;;;;;;;9.19;70.92;101402.13;5025472;28;20128;-68
2023/12/27 10:16:10;;;;;;;65.97;62.67;;;;;;;9.22;70.81;101400.88;5030350;28;20417;-69
2023/12/27 10:18:35;;;;;;;63.03;60.13;;;;;;;9.22;70.91;101398.19;5031759;28;20025;-69
2023/12/27 10:21:01;;;;;;;64.20;61.10;;;;;;;9.23;70.81;101406.06;5027889;28;20037;-69
2023/12/27 10:23:27;;;;;;;65.47;62.33;;;;;;;9.24;70.85;101402.31;5024243;28;20038;-69
2023/12/27 10:25:52;;;;;;;61.05;58.28;;;;;;;9.25;70.90;101401.28;5027212;28;20128;-68
2023/12/27 10:28:24;;;;;;;65.40;62.45;;;;;;;9.27;70.84;101395.66;5025948;28;20041;-69
2023/12/27 10:30:51;;;;;;;62.35;59.45;;;;;;;9.28;70.83;101373.88;5023350;28;20037;-69
2023/12/27 10:33:19;;;;;;;66.53;63.50;;;;;;;9.29;70.93;101372.81;5027139;28;20045;-68
2023/12/27 10:35:45;;;;;;;68.20;65.05;;;;;;;9.29;70.87;101372.81;5030889;28;20036;-68
2023/12/27 10:38:10;;;;;;;64.13;61.08;;;;;;;9.30;70.57;101365.59;5027969;28;20036;-69
2023/12/27 10:40:39;;;;;;;67.65;64.43;;;;;;;9.31;71.08;101367.22;5027748;28;20033;-68
2023/12/27 10:43:04;;;;;;;67.72;64.43;;;;;;;9.32;70.86;101372.41;5038563;28;20389;-69
2023/12/27 10:45:30;;;;;;;63.17;60.17;;;;;;;9.34;71.56;101350.59;5029106;28;20045;-69
2023/12/27 10:48:00;;;;;;;63.53;60.55;;;;;;;9.35;71.12;101348.72;5024498;28;20038;-69
2023/12/27 10:50:27;;;;;;;65.10;62.00;;;;;;;9.35;71.04;101354.97;5038543;28;20128;-68
2023/12/27 10:53:06;;;;;;;61.67;58.80;;;;;;;9.37;70.98;101346.63;5028130;28;20037;-69
2023/12/27 10:55:32;;;;;;;;;;;;;;;9.41;70.91;101342.47;5031578;28;20036;-69
2023/12/27 10:57:59;;;;;;;61.60;58.72;;;;;;;9.41;71.00;101323.59;5021083;28;19924;-69
2023/12/27 11:00:25;;;;;;;64.15;61.08;;;;;;;9.41;70.88;101337.91;5022621;28;20046;-69
2023/12/27 11:02:52;;;;;;;61.40;58.60;;;;;;;9.40;70.77;101328.16;5026439;28;20389;-68
2023/12/27 11:05:20;;;;;;;61.85;59.00;;;;;;;9.40;70.73;101341.66;5028314;28;20045;-69
2023/12/27 11:07:46;;;;;;;62.90;60.03;;;;;;;9.41;70.95;101335.19;5026818;28;20030;-69
2023/12/27 11:10:16;;;;;;;70.22;66.60;;;;;;;9.43;70.97;101316.94;5026723;28;20040;-69